createdAt,value
2023-04-01T00:00:39.353Z,98186.44
2023-04-01T00:03:09.352Z,98193.41
2023-04-01T00:05:38.940Z,98182.13
2023-04-01T00:08:08.806Z,98186.59
2023-04-01T00:10:44.145Z,98189.09
2023-04-01T00:13:14.139Z,98177.63
2023-04-01T00:15:45.017Z,98180.16
2023-04-01T00:18:15.467Z,98180.22
2023-04-01T00:20:48.377Z,98179.28
2023-04-01T00:23:18.153Z,98181.03
2023-04-01T00:25:52.801Z,98176.44
2023-04-01T00:28:23.859Z,98179.84
2023-04-01T00:30:53.623Z,98183.28
2023-04-01T00:33:23.175Z,98194.53
2023-04-01T00:35:52.800Z,98190.19
2023-04-01T00:38:22.983Z,98185.00
2023-04-01T00:41:01.387Z,98193.66
2023-04-01T00:43:31.525Z,98183.19
2023-04-01T00:46:01.426Z,98184.97
2023-04-01T00:48:34.470Z,98183.25
2023-04-01T00:51:08.514Z,98181.56
2023-04-01T00:53:43.036Z,98181.63
2023-04-01T00:56:18.827Z,98188.59
2023-04-01T00:58:55.098Z,98186.91
2023-04-01T01:01:27.577Z,98189.56
2023-04-01T01:03:57.327Z,98186.09
2023-04-01T01:06:42.945Z,98191.34
2023-04-01T01:09:34.466Z,98183.63
2023-04-01T01:12:14.076Z,98190.69
2023-04-01T01:14:55.544Z,98188.06
2023-04-01T01:17:36.341Z,98188.03
2023-04-01T01:20:36.542Z,98183.75
2023-04-01T01:23:43.752Z,98180.25
2023-04-01T01:26:38.376Z,98173.53
2023-04-01T01:29:21.664Z,98183.97
2023-04-01T01:32:02.600Z,98183.91
2023-04-01T01:34:38.289Z,98187.50
2023-04-01T01:37:15.782Z,98185.78
2023-04-01T01:39:48.580Z,98179.66
2023-04-01T01:42:22.535Z,98191.09
2023-04-01T01:44:53.811Z,98176.19
2023-04-01T01:47:26.145Z,98176.91
2023-04-01T01:49:58.051Z,98176.03
2023-04-01T01:52:32.031Z,98174.28
2023-04-01T01:55:02.160Z,98169.09
2023-04-01T01:57:34.446Z,98171.63
2023-04-01T02:00:14.039Z,98170.72
2023-04-01T02:02:44.400Z,98167.19
2023-04-01T02:05:19.363Z,98164.56
2023-04-01T02:07:56.647Z,98168.94
2023-04-01T02:10:29.596Z,98163.72
2023-04-01T02:13:05.054Z,98163.69
2023-04-01T02:15:41.435Z,98175.06
2023-04-01T02:18:11.905Z,98168.94
2023-04-01T02:20:42.887Z,98154.00
2023-04-01T02:23:15.666Z,98155.78
2023-04-01T02:25:46.906Z,98158.31
2023-04-01T02:28:20.612Z,98151.38
2023-04-01T02:30:51.999Z,98158.28
2023-04-01T02:33:23.212Z,98153.03
2023-04-01T02:35:53.116Z,98151.28
2023-04-01T02:38:25.712Z,98155.56
2023-04-01T02:41:01.608Z,98154.63
2023-04-01T02:43:31.381Z,98152.03
2023-04-01T02:46:01.096Z,98158.94
2023-04-01T02:48:30.894Z,98160.69
2023-04-01T02:51:00.737Z,98155.31
2023-04-01T02:53:32.995Z,98158.03
2023-04-01T02:56:02.544Z,98156.19
2023-04-01T02:58:32.104Z,98163.94
2023-04-01T03:01:04.104Z,98162.09
2023-04-01T03:03:35.853Z,98169.09
2023-04-01T03:06:09.426Z,98170.81
2023-04-01T03:08:42.087Z,98172.47
2023-04-01T03:11:16.259Z,98168.94
2023-04-01T03:13:46.178Z,98173.28
2023-04-01T03:16:17.195Z,98178.59
2023-04-01T03:18:47.077Z,98172.44
2023-04-01T03:21:18.525Z,98174.88
2023-04-01T03:23:50.922Z,98178.34
2023-04-01T03:26:22.645Z,98186.31
2023-04-01T03:28:52.568Z,98176.75
2023-04-01T03:31:23.624Z,98181.19
2023-04-01T03:33:53.510Z,98179.50
2023-04-01T03:36:23.177Z,98188.28
2023-04-01T03:38:55.551Z,98184.78
2023-04-01T03:41:27.465Z,98176.03
2023-04-01T03:43:57.684Z,98186.53
2023-04-01T03:46:27.293Z,98181.34
2023-04-01T03:48:56.869Z,98179.59
2023-04-01T03:51:26.958Z,98181.44
2023-04-01T03:53:59.214Z,98191.25
2023-04-01T03:56:28.800Z,98182.69
2023-04-01T03:58:58.356Z,98181.91
2023-04-01T04:01:28.795Z,98190.72
2023-04-01T04:03:58.333Z,98189.88
2023-04-01T04:06:28.694Z,98195.13
2023-04-01T04:09:01.021Z,98196.88
2023-04-01T04:11:30.929Z,98192.56
2023-04-01T04:14:00.582Z,98190.88
2023-04-01T04:16:32.066Z,98196.22
2023-04-01T04:19:01.697Z,98203.25
2023-04-01T04:21:31.273Z,98197.19
2023-04-01T04:24:04.101Z,98196.38
2023-04-01T04:26:33.740Z,98199.84
2023-04-01T04:29:03.633Z,98199.00
2023-04-01T04:31:33.255Z,98192.03
2023-04-01T04:34:07.506Z,98201.59
2023-04-01T04:36:37.306Z,98199.88
2023-04-01T04:39:09.449Z,98196.38
2023-04-01T04:41:41.642Z,98201.59
2023-04-01T04:44:11.369Z,98206.00
2023-04-01T04:46:41.009Z,98200.78
2023-04-01T04:49:11.242Z,98198.19
2023-04-01T04:51:40.922Z,98203.38
2023-04-01T04:54:13.454Z,98207.75
2023-04-01T04:56:43.136Z,98204.31
2023-04-01T04:59:13.732Z,98209.56
2023-04-01T05:01:43.379Z,98207.66
2023-04-01T05:04:12.967Z,98216.47
2023-04-01T05:06:42.510Z,98214.69
2023-04-01T05:09:14.637Z,98213.81
2023-04-01T05:11:44.223Z,98217.28
2023-04-01T05:14:17.236Z,98217.25
2023-04-01T05:16:47.212Z,98221.69
2023-04-01T05:19:16.970Z,98212.03
2023-04-01T05:21:46.793Z,98217.22
2023-04-01T05:24:18.911Z,98209.34
2023-04-01T05:26:48.532Z,98214.53
2023-04-01T05:29:18.120Z,98213.66
2023-04-01T05:31:47.624Z,98216.16
2023-04-01T05:34:20.284Z,98218.84
2023-04-01T05:36:49.855Z,98217.09
2023-04-01T05:39:22.040Z,98215.28
2023-04-01T05:41:51.611Z,98217.84
2023-04-01T05:44:21.892Z,98220.38
2023-04-01T05:46:51.413Z,98225.75
2023-04-01T05:49:21.212Z,98217.88
2023-04-01T05:51:50.845Z,98220.38
2023-04-01T05:54:23.367Z,98217.78
2023-04-01T05:56:53.134Z,98222.22
2023-04-01T05:59:22.686Z,98223.91
2023-04-01T06:01:52.467Z,98219.53
2023-04-01T06:04:24.556Z,98223.00
2023-04-01T06:06:54.683Z,98229.09
2023-04-01T06:09:31.451Z,98226.50
2023-04-01T06:12:21.941Z,98226.50
2023-04-01T06:15:05.106Z,98239.53
2023-04-01T06:17:50.841Z,98232.53
2023-04-01T06:20:29.424Z,98232.59
2023-04-01T06:23:14.980Z,98245.63
2023-04-01T06:26:06.786Z,98246.41
2023-04-01T06:28:52.204Z,98242.91
2023-04-01T06:31:37.233Z,98253.34
2023-04-01T06:34:42.792Z,98249.00
2023-04-01T06:37:24.304Z,98250.72
2023-04-01T06:40:17.731Z,98253.28
2023-04-01T06:43:02.402Z,98253.25
2023-04-01T06:45:40.918Z,98256.63
2023-04-01T06:48:32.537Z,98258.44
2023-04-01T06:51:12.756Z,98257.53
2023-04-01T06:53:51.469Z,98251.25
2023-04-01T06:56:23.177Z,98252.03
2023-04-01T06:58:59.811Z,98259.78
2023-04-01T07:01:34.927Z,98262.25
2023-04-01T07:04:08.994Z,98251.75
2023-04-01T07:06:42.169Z,98251.72
2023-04-01T07:09:17.045Z,98258.63
2023-04-01T07:11:47.046Z,98254.16
2023-04-01T07:14:24.664Z,98255.03
2023-04-01T07:17:02.647Z,98261.00
2023-04-01T07:19:38.007Z,98256.66
2023-04-01T07:22:10.423Z,98263.69
2023-04-01T07:24:43.319Z,98260.16
2023-04-01T07:27:15.019Z,98255.75
2023-04-01T07:29:47.152Z,98261.75
2023-04-01T07:32:31.330Z,98263.34
2023-04-01T07:35:17.159Z,98270.28
2023-04-01T07:37:56.713Z,98264.16
2023-04-01T07:40:34.519Z,98267.59
2023-04-01T07:43:22.423Z,98274.66
2023-04-01T07:46:04.181Z,98266.78
2023-04-01T07:48:41.905Z,98277.31
2023-04-01T07:51:17.414Z,98280.69
2023-04-01T07:53:54.070Z,98273.53
2023-04-01T07:56:31.392Z,98283.81
2023-04-01T07:59:10.872Z,98291.38
2023-04-01T08:01:48.014Z,98289.06
2023-04-01T08:04:35.038Z,98284.31
2023-04-01T08:07:11.984Z,98288.03
2023-04-01T08:09:52.121Z,98296.13
2023-04-01T08:12:33.286Z,98289.88
2023-04-01T08:15:12.274Z,98288.16
2023-04-01T08:17:56.483Z,98296.13
2023-04-01T08:20:34.945Z,98304.16
2023-04-01T08:23:10.637Z,98306.81
2023-04-01T08:25:43.385Z,98295.28
2023-04-01T08:28:21.320Z,98304.63
2023-04-01T08:30:55.251Z,98301.16
2023-04-01T08:33:30.222Z,98305.38
2023-04-01T08:36:05.557Z,98303.44
2023-04-01T08:38:38.725Z,98304.03
2023-04-01T08:41:48.843Z,98307.28
2023-04-01T08:45:01.502Z,98309.81
2023-04-01T08:48:01.837Z,98309.53
2023-04-01T08:51:12.219Z,98303.75
2023-04-01T08:54:01.269Z,98310.56
2023-04-01T08:56:37.493Z,98310.03
2023-04-01T08:59:46.819Z,98320.09
2023-04-01T09:02:45.591Z,98323.59
2023-04-01T09:05:35.740Z,98323.22
2023-04-01T09:08:21.164Z,98320.38
2023-04-01T09:11:15.259Z,98310.91
2023-04-01T09:14:10.157Z,98324.19
2023-04-01T09:17:19.331Z,98320.91
2023-04-01T09:20:06.051Z,98329.78
2023-04-01T09:22:48.721Z,98338.66
2023-04-01T09:25:48.331Z,98342.25
2023-04-01T09:28:23.504Z,98337.13
2023-04-01T09:31:14.387Z,98345.22
2023-04-01T09:34:09.302Z,98343.59
2023-04-01T09:36:49.569Z,98331.72
2023-04-01T09:39:40.072Z,98343.78
2023-04-01T09:42:45.554Z,98345.28
2023-04-01T09:45:31.874Z,98345.22
2023-04-01T09:48:07.302Z,98342.75
2023-04-01T09:50:47.444Z,98349.88
2023-04-01T09:53:38.098Z,98345.03
2023-04-01T09:56:43.604Z,98349.47
2023-04-01T09:59:47.755Z,98350.53
2023-04-01T10:02:59.140Z,98348.91
2023-04-01T10:06:13.130Z,98351.88
2023-04-01T10:09:21.394Z,98365.13
2023-04-01T10:12:15.618Z,98362.44
2023-04-01T10:15:21.165Z,98364.44
2023-04-01T10:18:37.111Z,98359.81
2023-04-01T10:21:26.615Z,98374.53
2023-04-01T10:24:22.198Z,98374.50
2023-04-01T10:27:19.934Z,98387.22
2023-04-01T10:30:33.136Z,98379.22
2023-04-01T10:33:27.685Z,98379.91
2023-04-01T10:36:51.031Z,98382.47
2023-04-01T10:39:37.820Z,98387.84
2023-04-01T10:42:49.577Z,98386.91
2023-04-01T10:45:50.122Z,98388.81
2023-04-01T10:48:54.531Z,98388.97
2023-04-01T10:51:52.870Z,98394.47
2023-04-01T10:54:33.334Z,98389.06
2023-04-01T10:57:06.359Z,98385.44
2023-04-01T10:59:55.359Z,98382.69
2023-04-01T11:03:04.371Z,98384.50
2023-04-01T11:06:02.407Z,98389.44
2023-04-01T11:09:14.982Z,98385.72
2023-04-01T11:12:28.071Z,98392.97
2023-04-01T11:15:27.747Z,98379.47
2023-04-01T11:18:17.274Z,98380.81
2023-04-01T11:21:16.826Z,98391.88
2023-04-01T11:24:04.897Z,98394.59
2023-04-01T11:26:51.474Z,98386.69
2023-04-01T11:29:59.141Z,98400.00
2023-04-01T11:32:43.921Z,98398.03
2023-04-01T11:35:39.730Z,98401.72
2023-04-01T11:38:23.487Z,98410.09
2023-04-01T11:41:03.787Z,98427.03
2023-04-01T11:43:38.710Z,98423.03
2023-04-01T11:46:14.533Z,98421.69
2023-04-01T11:49:06.704Z,98415.69
2023-04-01T11:51:59.858Z,98419.94
2023-04-01T11:54:48.012Z,98419.63
2023-04-01T11:57:47.391Z,98415.44
2023-04-01T12:00:39.435Z,98414.44
2023-04-01T12:03:32.314Z,98413.66
2023-04-01T12:06:08.381Z,98422.97
2023-04-01T12:08:48.124Z,98421.09
2023-04-01T12:11:25.232Z,98426.53
2023-04-01T12:14:06.234Z,98423.41
2023-04-01T12:17:01.546Z,98431.22
2023-04-01T12:19:41.946Z,98425.16
2023-04-01T12:22:36.524Z,98429.69
2023-04-01T12:25:22.530Z,98423.50
2023-04-01T12:28:04.075Z,98427.91
2023-04-01T12:30:59.595Z,98429.00
2023-04-01T12:33:46.531Z,98427.03
2023-04-01T12:36:38.474Z,98424.50
2023-04-01T12:39:26.694Z,98430.50
2023-04-01T12:42:03.739Z,98426.22
2023-04-01T12:44:50.851Z,98425.34
2023-04-01T12:47:57.519Z,98432.03
2023-04-01T12:50:40.565Z,98432.16
2023-04-01T12:53:26.310Z,98434.56
2023-04-01T12:55:56.396Z,98432.03
2023-04-01T12:58:58.410Z,98437.66
2023-04-01T13:01:35.701Z,98433.78
2023-04-01T13:04:48.685Z,98447.50
2023-04-01T13:07:47.338Z,98445.09
2023-04-01T13:10:32.005Z,98439.72
2023-04-01T13:13:18.519Z,98446.53
2023-04-01T13:15:51.342Z,98453.31
2023-04-01T13:18:30.914Z,98453.06
2023-04-01T13:21:13.232Z,98464.44
2023-04-01T13:23:59.930Z,98467.59
2023-04-01T13:26:38.267Z,98471.00
2023-04-01T13:29:15.071Z,98480.66
2023-04-01T13:32:09.835Z,98475.84
2023-04-01T13:34:55.158Z,98484.56
2023-04-01T13:37:52.055Z,98483.91
2023-04-01T13:40:46.794Z,98490.19
2023-04-01T13:43:26.137Z,98488.28
2023-04-01T13:46:20.319Z,98488.56
2023-04-01T13:49:06.738Z,98487.44
2023-04-01T13:51:46.002Z,98481.72
2023-04-01T13:54:50.474Z,98490.34
2023-04-01T13:57:39.892Z,98486.88
2023-04-01T14:00:28.911Z,98481.91
2023-04-01T14:03:33.996Z,98482.25
2023-04-01T14:06:31.325Z,98489.31
2023-04-01T14:09:30.449Z,98491.38
2023-04-01T14:12:12.262Z,98495.13
2023-04-01T14:14:56.721Z,98496.13
2023-04-01T14:17:45.709Z,98497.97
2023-04-01T14:20:44.626Z,98493.56
2023-04-01T14:23:39.964Z,98492.94
2023-04-01T14:26:26.507Z,98493.28
2023-04-01T14:29:03.959Z,98494.59
2023-04-01T14:31:51.407Z,98500.38
2023-04-01T14:34:36.577Z,98507.59
2023-04-01T14:37:16.957Z,98505.75
2023-04-01T14:40:09.683Z,98508.53
2023-04-01T14:42:58.532Z,98510.56
2023-04-01T14:45:50.008Z,98520.34
2023-04-01T14:48:33.049Z,98518.84
2023-04-01T14:51:13.286Z,98522.31
2023-04-01T14:53:47.536Z,98526.72
2023-04-01T14:56:37.743Z,98531.47
2023-04-01T14:59:12.974Z,98541.59
2023-04-01T15:01:51.608Z,98528.59
2023-04-01T15:04:47.459Z,98537.47
2023-04-01T15:07:30.944Z,98535.31
2023-04-01T15:10:20.820Z,98539.06
2023-04-01T15:13:00.478Z,98537.81
2023-04-01T15:15:46.330Z,98538.25
2023-04-01T15:18:25.945Z,98534.19
2023-04-01T15:21:28.766Z,98537.81
2023-04-01T15:24:03.804Z,98539.59
2023-04-01T15:26:54.393Z,98537.97
2023-04-01T15:29:42.601Z,98545.94
2023-04-01T15:32:20.867Z,98548.63
2023-04-01T15:35:03.846Z,98550.81
2023-04-01T15:37:42.191Z,98556.81
2023-04-01T15:40:26.598Z,98558.88
2023-04-01T15:43:08.984Z,98558.94
2023-04-01T15:45:49.579Z,98558.94
2023-04-01T15:48:35.655Z,98562.41
2023-04-01T15:51:43.173Z,98559.97
2023-04-01T15:54:36.894Z,98553.72
2023-04-01T15:57:19.171Z,98556.47
2023-04-01T16:00:11.947Z,98560.84
2023-04-01T16:02:50.994Z,98564.34
2023-04-01T16:05:34.251Z,98563.50
2023-04-01T16:08:36.506Z,98565.28
2023-04-01T16:11:22.676Z,98573.25
2023-04-01T16:14:02.325Z,98569.81
2023-04-01T16:16:50.180Z,98582.09
2023-04-01T16:19:41.146Z,98585.66
2023-04-01T16:22:17.459Z,98593.53
2023-04-01T16:24:55.390Z,98594.38
2023-04-01T16:27:31.596Z,98594.44
2023-04-01T16:30:07.063Z,98594.44
2023-04-01T16:32:45.461Z,98600.44
2023-04-01T16:35:28.265Z,98600.50
2023-04-01T16:38:07.787Z,98611.09
2023-04-01T16:40:47.184Z,98611.94
2023-04-01T16:43:25.444Z,98612.91
2023-04-01T16:46:16.266Z,98617.31
2023-04-01T16:49:01.702Z,98617.34
2023-04-01T16:51:40.643Z,98620.81
2023-04-01T16:54:17.174Z,98624.41
2023-04-01T16:56:54.253Z,98620.03
2023-04-01T16:59:28.344Z,98626.19
2023-04-01T17:02:05.633Z,98635.84
2023-04-01T17:04:42.309Z,98637.66
2023-04-01T17:07:24.377Z,98649.97
2023-04-01T17:10:05.666Z,98650.88
2023-04-01T17:12:52.757Z,98659.66
2023-04-01T17:15:28.818Z,98666.69
2023-04-01T17:18:02.694Z,98668.47
2023-04-01T17:20:47.214Z,98677.22
2023-04-01T17:23:24.058Z,98678.97
2023-04-01T17:26:14.729Z,98671.91
2023-04-01T17:28:54.387Z,98683.28
2023-04-01T17:31:46.313Z,98682.41
2023-04-01T17:34:34.941Z,98688.53
2023-04-01T17:37:20.862Z,98695.53
2023-04-01T17:40:01.329Z,98702.50
2023-04-01T17:42:43.667Z,98696.56
2023-04-01T17:45:25.986Z,98710.59
2023-04-01T17:48:07.267Z,98710.69
2023-04-01T17:50:54.729Z,98725.63
2023-04-01T17:53:39.051Z,98717.84
2023-04-01T17:56:25.956Z,98728.50
2023-04-01T17:59:03.258Z,98732.06
2023-04-01T18:01:58.860Z,98736.56
2023-04-01T18:04:41.892Z,98743.59
2023-04-01T18:07:32.184Z,98749.75
2023-04-01T18:10:17.633Z,98755.03
2023-04-01T18:13:09.502Z,98753.34
2023-04-01T18:15:46.291Z,98759.53
2023-04-01T18:18:39.321Z,98765.69
2023-04-01T18:21:16.326Z,98773.66
2023-04-01T18:24:01.732Z,98781.53
2023-04-01T18:26:35.896Z,98775.53
2023-04-01T18:29:15.090Z,98779.09
2023-04-01T18:31:49.530Z,98786.09
2023-04-01T18:34:41.737Z,98783.53
2023-04-01T18:37:25.495Z,98785.31
2023-04-01T18:39:59.784Z,98791.47
2023-04-01T18:42:41.488Z,98794.06
2023-04-01T18:45:22.760Z,98794.09
2023-04-01T18:48:03.792Z,98804.59
2023-04-01T18:50:42.474Z,98805.50
2023-04-01T18:53:23.705Z,98809.91
2023-04-01T18:55:57.805Z,98814.31
2023-04-01T18:58:33.074Z,98818.69
2023-04-01T19:01:24.518Z,98818.69
2023-04-01T19:04:06.840Z,98829.16
2023-04-01T19:06:48.938Z,98830.94
2023-04-01T19:09:26.540Z,98832.69
2023-04-01T19:12:17.779Z,98829.25
2023-04-01T19:14:57.633Z,98832.75
2023-04-01T19:17:45.946Z,98835.38
2023-04-01T19:20:25.150Z,98840.63
2023-04-01T19:23:21.858Z,98844.19
2023-04-01T19:25:54.856Z,98843.31
2023-04-01T19:28:35.898Z,98848.59
2023-04-01T19:31:20.899Z,98845.13
2023-04-01T19:34:04.030Z,98844.25
2023-04-01T19:36:40.203Z,98853.88
2023-04-01T19:39:17.292Z,98853.88
2023-04-01T19:41:50.444Z,98858.25
2023-04-01T19:44:34.240Z,98860.00
2023-04-01T19:47:11.769Z,98860.88
2023-04-01T19:49:52.344Z,98869.63
2023-04-01T19:52:26.814Z,98865.28
2023-04-01T19:55:03.213Z,98873.16
2023-04-01T19:57:42.463Z,98879.25
2023-04-01T20:00:26.060Z,98874.06
2023-04-01T20:03:16.180Z,98888.00
2023-04-01T20:05:54.017Z,98888.03
2023-04-01T20:08:37.068Z,98892.41
2023-04-01T20:11:25.793Z,98891.53
2023-04-01T20:14:05.655Z,98894.16
2023-04-01T20:16:58.483Z,98896.78
2023-04-01T20:19:37.646Z,98899.44
2023-04-01T20:22:22.858Z,98898.56
2023-04-01T20:24:53.047Z,98900.31
2023-04-01T20:27:29.989Z,98907.34
2023-04-01T20:30:16.861Z,98917.78
2023-04-01T20:33:05.806Z,98907.34
2023-04-01T20:35:46.486Z,98904.75
2023-04-01T20:38:39.049Z,98922.25
2023-04-01T20:41:17.100Z,98925.78
2023-04-01T20:44:01.848Z,98930.16
2023-04-01T20:46:39.168Z,98928.44
2023-04-01T20:49:44.603Z,98930.19
2023-04-01T20:52:37.201Z,98933.69
2023-04-01T20:55:26.341Z,98934.59
2023-04-01T20:58:10.502Z,98938.06
2023-04-01T21:00:56.780Z,98938.94
2023-04-01T21:03:45.599Z,98939.81
2023-04-01T21:06:27.936Z,98946.84
2023-04-01T21:09:22.085Z,98945.97
2023-04-01T21:12:01.558Z,98947.75
2023-04-01T21:14:53.889Z,98951.25
2023-04-01T21:17:37.631Z,98957.41
2023-04-01T21:20:20.807Z,98954.81
2023-04-01T21:23:04.017Z,98961.75
2023-04-01T21:25:58.157Z,98963.53
2023-04-01T21:28:48.882Z,98968.78
2023-04-01T21:31:54.115Z,98971.41
2023-04-01T21:34:45.874Z,98974.03
2023-04-01T21:37:39.696Z,98971.41
2023-04-01T21:40:38.338Z,98971.44
2023-04-01T21:43:25.122Z,98979.28
2023-04-01T21:46:30.034Z,98980.13
2023-04-01T21:49:18.988Z,98983.63
2023-04-01T21:52:18.727Z,98977.56
2023-04-01T21:55:27.290Z,98984.50
2023-04-01T21:58:31.509Z,98988.03
2023-04-01T22:01:13.880Z,98976.72
2023-04-01T22:04:04.933Z,98981.06
2023-04-01T22:06:41.429Z,98989.78
2023-04-01T22:09:22.009Z,98992.41
2023-04-01T22:11:58.535Z,98999.38
2023-04-01T22:14:35.352Z,98991.56
2023-04-01T22:17:14.769Z,98997.66
2023-04-01T22:19:51.932Z,98999.41
2023-04-01T22:22:26.024Z,99010.75
2023-04-01T22:25:08.140Z,99012.50
2023-04-01T22:27:46.198Z,99012.50
2023-04-01T22:30:23.080Z,99021.22
2023-04-01T22:32:56.829Z,99023.84
2023-04-01T22:35:39.509Z,99022.94
2023-04-01T22:38:24.886Z,99022.94
2023-04-01T22:41:04.600Z,99023.84
2023-04-01T22:43:41.554Z,99023.84
2023-04-01T22:46:30.457Z,99031.66
2023-04-01T22:49:10.654Z,99028.19
2023-04-01T22:51:46.956Z,99034.28
2023-04-01T22:54:25.623Z,99043.03
2023-04-01T22:57:01.203Z,99036.06
2023-04-01T22:59:38.768Z,99047.38
2023-04-01T23:02:15.056Z,99046.47
2023-04-01T23:04:47.643Z,99045.66
2023-04-01T23:07:38.064Z,99056.97
2023-04-01T23:10:15.869Z,99058.72
2023-04-01T23:12:49.504Z,99069.16
2023-04-01T23:15:20.266Z,99077.03
2023-04-01T23:17:57.978Z,99072.63
2023-04-01T23:20:36.409Z,99080.50
2023-04-01T23:23:30.844Z,99080.50
2023-04-01T23:26:09.473Z,99088.31
2023-04-01T23:28:51.639Z,99097.88
2023-04-01T23:31:38.306Z,99088.28
2023-04-01T23:34:24.199Z,99096.97
2023-04-01T23:36:56.911Z,99098.69
2023-04-01T23:39:30.432Z,99103.91
2023-04-01T23:42:05.515Z,99101.28
2023-04-01T23:44:39.293Z,99111.69
2023-04-01T23:47:11.535Z,99114.28
2023-04-01T23:49:44.118Z,99108.19
2023-04-01T23:52:17.843Z,99112.50
2023-04-01T23:54:53.305Z,99112.47
2023-04-01T23:57:26.608Z,99124.66
